sensor_id;sensor_type;location;lat;lon;timestamp;temperature;humidity
63537;DHT22;49686;51.880;5.632;2023-10-19T00:01:58;10.60;99.90
63537;DHT22;49686;51.880;5.632;2023-10-19T00:04:25;10.60;99.90
63537;DHT22;49686;51.880;5.632;2023-10-19T00:06:52;10.70;99.90
63537;DHT22;49686;51.880;5.632;2023-10-19T00:09:19;10.70;99.90
63537;DHT22;49686;51.880;5.632;2023-10-19T00:11:47;10.70;99.90
63537;DHT22;49686;51.880;5.632;2023-10-19T00:14:14;10.70;99.90
63537;DHT22;49686;51.880;5.632;2023-10-19T00:16:41;10.70;99.90
63537;DHT22;49686;51.880;5.632;2023-10-19T00:19:08;10.80;99.90
63537;DHT22;49686;51.880;5.632;2023-10-19T00:21:34;10.80;99.90
63537;DHT22;49686;51.880;5.632;2023-10-19T00:24:01;10.80;99.90
63537;DHT22;49686;51.880;5.632;2023-10-19T00:26:28;10.80;99.90
63537;DHT22;49686;51.880;5.632;2023-10-19T00:28:56;10.80;99.90
63537;DHT22;49686;51.880;5.632;2023-10-19T00:31:24;10.80;99.90
63537;DHT22;49686;51.880;5.632;2023-10-19T00:33:51;10.80;99.90
63537;DHT22;49686;51.880;5.632;2023-10-19T00:36:18;10.80;99.90
63537;DHT22;49686;51.880;5.632;2023-10-19T00:38:44;10.80;99.90
63537;DHT22;49686;51.880;5.632;2023-10-19T00:41:12;10.80;99.90
63537;DHT22;49686;51.880;5.632;2023-10-19T00:43:40;10.80;99.90
63537;DHT22;49686;51.880;5.632;2023-10-19T00:46:08;10.80;99.90
63537;DHT22;49686;51.880;5.632;2023-10-19T00:48:35;10.80;99.90
63537;DHT22;49686;51.880;5.632;2023-10-19T00:51:04;10.80;99.90
63537;DHT22;49686;51.880;5.632;2023-10-19T00:53:30;10.90;99.90
63537;DHT22;49686;51.880;5.632;2023-10-19T00:55:57;10.90;99.90
63537;DHT22;49686;51.880;5.632;2023-10-19T00:58:24;10.90;99.90
63537;DHT22;49686;51.880;5.632;2023-10-19T01:00:51;10.90;99.90
63537;DHT22;49686;51.880;5.632;2023-10-19T01:03:19;11.00;99.90
63537;DHT22;49686;51.880;5.632;2023-10-19T01:05:46;11.00;99.90
63537;DHT22;49686;51.880;5.632;2023-10-19T01:08:13;11.00;99.90
63537;DHT22;49686;51.880;5.632;2023-10-19T01:10:40;11.00;99.90
63537;DHT22;49686;51.880;5.632;2023-10-19T01:13:07;11.00;99.90
63537;DHT22;49686;51.880;5.632;2023-10-19T01:15:34;11.10;99.90
63537;DHT22;49686;51.880;5.632;2023-10-19T01:18:01;11.10;99.90
63537;DHT22;49686;51.880;5.632;2023-10-19T01:20:31;11.10;99.90
63537;DHT22;49686;51.880;5.632;2023-10-19T01:23:01;11.20;99.90
63537;DHT22;49686;51.880;5.632;2023-10-19T01:25:28;11.20;99.90
63537;DHT22;49686;51.880;5.632;2023-10-19T01:27:55;11.20;99.90
63537;DHT22;49686;51.880;5.632;2023-10-19T01:30:22;11.30;99.90
63537;DHT22;49686;51.880;5.632;2023-10-19T01:32:48;11.30;99.90
63537;DHT22;49686;51.880;5.632;2023-10-19T01:35:15;11.30;99.90
63537;DHT22;49686;51.880;5.632;2023-10-19T01:37:42;11.40;99.90
63537;DHT22;49686;51.880;5.632;2023-10-19T01:40:11;11.40;99.90
63537;DHT22;49686;51.880;5.632;2023-10-19T01:42:38;11.40;99.90
63537;DHT22;49686;51.880;5.632;2023-10-19T01:45:06;11.50;99.90
63537;DHT22;49686;51.880;5.632;2023-10-19T01:47:33;11.50;99.90
63537;DHT22;49686;51.880;5.632;2023-10-19T01:50:00;11.60;99.90
63537;DHT22;49686;51.880;5.632;2023-10-19T01:52:27;11.70;99.90
63537;DHT22;49686;51.880;5.632;2023-10-19T01:54:53;11.70;99.90
63537;DHT22;49686;51.880;5.632;2023-10-19T01:57:22;11.80;99.90
63537;DHT22;49686;51.880;5.632;2023-10-19T01:59:48;11.80;99.90
63537;DHT22;49686;51.880;5.632;2023-10-19T02:02:15;11.80;99.90
63537;DHT22;49686;51.880;5.632;2023-10-19T02:04:42;11.80;99.90
63537;DHT22;49686;51.880;5.632;2023-10-19T02:07:09;11.80;99.90
63537;DHT22;49686;51.880;5.632;2023-10-19T02:09:36;11.90;99.90
63537;DHT22;49686;51.880;5.632;2023-10-19T02:12:03;11.90;99.90
63537;DHT22;49686;51.880;5.632;2023-10-19T02:14:31;11.90;99.90
63537;DHT22;49686;51.880;5.632;2023-10-19T02:16:59;11.90;99.90
63537;DHT22;49686;51.880;5.632;2023-10-19T02:19:28;12.00;99.90
63537;DHT22;49686;51.880;5.632;2023-10-19T02:21:56;12.00;99.90
63537;DHT22;49686;51.880;5.632;2023-10-19T02:24:23;12.00;99.90
63537;DHT22;49686;51.880;5.632;2023-10-19T02:26:51;12.10;99.90
63537;DHT22;49686;51.880;5.632;2023-10-19T02:29:18;12.10;99.90
63537;DHT22;49686;51.880;5.632;2023-10-19T02:31:47;12.20;99.90
63537;DHT22;49686;51.880;5.632;2023-10-19T02:34:14;12.20;99.90
63537;DHT22;49686;51.880;5.632;2023-10-19T02:36:42;12.20;99.90
63537;DHT22;49686;51.880;5.632;2023-10-19T02:39:10;12.30;99.90
63537;DHT22;49686;51.880;5.632;2023-10-19T02:41:38;12.30;99.90
63537;DHT22;49686;51.880;5.632;2023-10-19T02:44:08;12.40;99.90
63537;DHT22;49686;51.880;5.632;2023-10-19T02:46:35;12.40;99.90
63537;DHT22;49686;51.880;5.632;2023-10-19T02:49:05;12.40;99.90
63537;DHT22;49686;51.880;5.632;2023-10-19T02:51:32;12.50;99.90
63537;DHT22;49686;51.880;5.632;2023-10-19T02:53:58;12.50;99.90
63537;DHT22;49686;51.880;5.632;2023-10-19T02:56:25;12.60;99.90
63537;DHT22;49686;51.880;5.632;2023-10-19T02:58:52;12.70;99.90
63537;DHT22;49686;51.880;5.632;2023-10-19T03:01:20;12.70;99.90
63537;DHT22;49686;51.880;5.632;2023-10-19T03:03:49;12.80;99.90
63537;DHT22;49686;51.880;5.632;2023-10-19T03:06:20;12.80;99.90
63537;DHT22;49686;51.880;5.632;2023-10-19T03:08:48;12.90;99.90
63537;DHT22;49686;51.880;5.632;2023-10-19T03:11:15;12.90;99.90
63537;DHT22;49686;51.880;5.632;2023-10-19T03:13:42;13.00;99.90
63537;DHT22;49686;51.880;5.632;2023-10-19T03:16:08;13.00;99.90
63537;DHT22;49686;51.880;5.632;2023-10-19T03:18:36;13.10;99.90
63537;DHT22;49686;51.880;5.632;2023-10-19T03:21:03;13.20;99.90
63537;DHT22;49686;51.880;5.632;2023-10-19T03:23:31;13.30;99.90
63537;DHT22;49686;51.880;5.632;2023-10-19T03:25:58;13.40;99.90
63537;DHT22;49686;51.880;5.632;2023-10-19T03:28:24;13.40;99.90
63537;DHT22;49686;51.880;5.632;2023-10-19T03:30:51;13.40;99.90
63537;DHT22;49686;51.880;5.632;2023-10-19T03:33:18;13.40;99.90
63537;DHT22;49686;51.880;5.632;2023-10-19T03:35:45;13.40;99.90
63537;DHT22;49686;51.880;5.632;2023-10-19T03:38:12;13.50;99.90
63537;DHT22;49686;51.880;5.632;2023-10-19T03:40:40;13.50;99.90
63537;DHT22;49686;51.880;5.632;2023-10-19T03:43:07;13.50;99.90
63537;DHT22;49686;51.880;5.632;2023-10-19T03:45:34;13.50;99.90
63537;DHT22;49686;51.880;5.632;2023-10-19T03:48:01;13.50;99.90
63537;DHT22;49686;51.880;5.632;2023-10-19T03:50:28;13.50;99.90
63537;DHT22;49686;51.880;5.632;2023-10-19T03:52:54;13.50;99.90
63537;DHT22;49686;51.880;5.632;2023-10-19T03:55:21;13.50;99.90
63537;DHT22;49686;51.880;5.632;2023-10-19T03:57:49;13.50;99.90
63537;DHT22;49686;51.880;5.632;2023-10-19T04:00:17;13.50;99.90
63537;DHT22;49686;51.880;5.632;2023-10-19T04:02:44;13.40;99.90
63537;DHT22;49686;51.880;5.632;2023-10-19T04:05:15;13.50;99.90
63537;DHT22;49686;51.880;5.632;2023-10-19T04:07:44;13.50;99.90
63537;DHT22;49686;51.880;5.632;2023-10-19T04:10:11;13.50;99.90
63537;DHT22;49686;51.880;5.632;2023-10-19T04:12:39;13.50;99.90
63537;DHT22;49686;51.880;5.632;2023-10-19T04:15:09;13.50;99.90
63537;DHT22;49686;51.880;5.632;2023-10-19T04:17:36;13.50;99.90
63537;DHT22;49686;51.880;5.632;2023-10-19T04:20:04;13.50;99.90
63537;DHT22;49686;51.880;5.632;2023-10-19T04:22:31;13.60;99.90
63537;DHT22;49686;51.880;5.632;2023-10-19T04:24:59;13.50;99.90
63537;DHT22;49686;51.880;5.632;2023-10-19T04:27:25;13.60;99.90
63537;DHT22;49686;51.880;5.632;2023-10-19T04:29:52;13.60;99.90
63537;DHT22;49686;51.880;5.632;2023-10-19T04:32:20;13.60;99.90
63537;DHT22;49686;51.880;5.632;2023-10-19T04:34:47;13.60;99.90
63537;DHT22;49686;51.880;5.632;2023-10-19T04:37:14;13.50;99.90
63537;DHT22;49686;51.880;5.632;2023-10-19T04:39:41;13.50;99.90
63537;DHT22;49686;51.880;5.632;2023-10-19T04:42:08;13.50;99.90
63537;DHT22;49686;51.880;5.632;2023-10-19T04:44:34;13.40;99.90
63537;DHT22;49686;51.880;5.632;2023-10-19T04:47:01;13.40;99.90
63537;DHT22;49686;51.880;5.632;2023-10-19T04:49:29;13.30;99.90
63537;DHT22;49686;51.880;5.632;2023-10-19T04:51:56;13.20;99.90
63537;DHT22;49686;51.880;5.632;2023-10-19T04:54:23;13.00;99.90
63537;DHT22;49686;51.880;5.632;2023-10-19T04:56:50;13.00;99.90
63537;DHT22;49686;51.880;5.632;2023-10-19T04:59:17;12.90;99.90
63537;DHT22;49686;51.880;5.632;2023-10-19T05:01:43;12.80;99.90
63537;DHT22;49686;51.880;5.632;2023-10-19T05:04:10;12.80;99.90
63537;DHT22;49686;51.880;5.632;2023-10-19T05:06:39;12.80;99.90
63537;DHT22;49686;51.880;5.632;2023-10-19T05:09:05;12.80;99.90
63537;DHT22;49686;51.880;5.632;2023-10-19T05:11:32;12.80;99.90
63537;DHT22;49686;51.880;5.632;2023-10-19T05:13:59;12.80;99.90
63537;DHT22;49686;51.880;5.632;2023-10-19T05:16:26;12.80;99.90
63537;DHT22;49686;51.880;5.632;2023-10-19T05:18:53;12.80;99.90
63537;DHT22;49686;51.880;5.632;2023-10-19T05:21:20;12.80;99.90
63537;DHT22;49686;51.880;5.632;2023-10-19T05:23:48;12.80;99.90
63537;DHT22;49686;51.880;5.632;2023-10-19T05:26:15;12.90;99.90
63537;DHT22;49686;51.880;5.632;2023-10-19T05:28:42;12.90;99.90
63537;DHT22;49686;51.880;5.632;2023-10-19T05:31:09;12.90;99.90
63537;DHT22;49686;51.880;5.632;2023-10-19T05:33:35;13.00;99.90
63537;DHT22;49686;51.880;5.632;2023-10-19T05:36:03;13.00;99.90
63537;DHT22;49686;51.880;5.632;2023-10-19T05:38:30;13.00;99.90
63537;DHT22;49686;51.880;5.632;2023-10-19T05:40:58;13.00;99.90
63537;DHT22;49686;51.880;5.632;2023-10-19T05:43:25;13.00;99.90
63537;DHT22;49686;51.880;5.632;2023-10-19T05:45:52;13.00;99.90
63537;DHT22;49686;51.880;5.632;2023-10-19T05:48:20;13.10;99.90
63537;DHT22;49686;51.880;5.632;2023-10-19T05:50:47;13.10;99.90
63537;DHT22;49686;51.880;5.632;2023-10-19T05:53:13;13.10;99.90
63537;DHT22;49686;51.880;5.632;2023-10-19T05:55:40;13.10;99.90
63537;DHT22;49686;51.880;5.632;2023-10-19T05:58:08;13.10;99.90
63537;DHT22;49686;51.880;5.632;2023-10-19T06:00:35;13.20;99.90
63537;DHT22;49686;51.880;5.632;2023-10-19T06:03:02;13.20;99.90
63537;DHT22;49686;51.880;5.632;2023-10-19T06:05:29;13.20;99.90
63537;DHT22;49686;51.880;5.632;2023-10-19T06:07:57;13.20;99.90
63537;DHT22;49686;51.880;5.632;2023-10-19T06:10:26;13.20;99.90
63537;DHT22;49686;51.880;5.632;2023-10-19T06:12:54;13.20;99.90
63537;DHT22;49686;51.880;5.632;2023-10-19T06:15:22;13.20;99.90
63537;DHT22;49686;51.880;5.632;2023-10-19T06:17:49;13.30;99.90
63537;DHT22;49686;51.880;5.632;2023-10-19T06:20:17;13.30;99.90
63537;DHT22;49686;51.880;5.632;2023-10-19T06:22:44;13.30;99.90
63537;DHT22;49686;51.880;5.632;2023-10-19T06:25:11;13.30;99.90
63537;DHT22;49686;51.880;5.632;2023-10-19T06:27:37;13.30;99.90
63537;DHT22;49686;51.880;5.632;2023-10-19T06:30:05;13.30;99.90
63537;DHT22;49686;51.880;5.632;2023-10-19T06:32:33;13.40;99.90
63537;DHT22;49686;51.880;5.632;2023-10-19T06:35:01;13.40;99.90
63537;DHT22;49686;51.880;5.632;2023-10-19T06:37:28;13.40;99.90
63537;DHT22;49686;51.880;5.632;2023-10-19T06:39:55;13.40;99.90
63537;DHT22;49686;51.880;5.632;2023-10-19T06:42:22;13.40;99.90
63537;DHT22;49686;51.880;5.632;2023-10-19T06:44:48;13.50;99.90
63537;DHT22;49686;51.880;5.632;2023-10-19T06:47:15;13.50;99.90
63537;DHT22;49686;51.880;5.632;2023-10-19T06:49:43;13.50;99.90
63537;DHT22;49686;51.880;5.632;2023-10-19T06:52:10;13.50;99.90
63537;DHT22;49686;51.880;5.632;2023-10-19T06:54:37;13.50;99.90
63537;DHT22;49686;51.880;5.632;2023-10-19T06:57:04;13.50;99.90
63537;DHT22;49686;51.880;5.632;2023-10-19T06:59:31;13.50;99.90
63537;DHT22;49686;51.880;5.632;2023-10-19T07:01:57;13.60;99.90
63537;DHT22;49686;51.880;5.632;2023-10-19T07:04:24;13.60;99.90
63537;DHT22;49686;51.880;5.632;2023-10-19T07:06:52;13.60;99.90
63537;DHT22;49686;51.880;5.632;2023-10-19T07:09:19;13.60;99.90
63537;DHT22;49686;51.880;5.632;2023-10-19T07:11:46;13.70;99.90
63537;DHT22;49686;51.880;5.632;2023-10-19T07:14:13;13.60;99.90
63537;DHT22;49686;51.880;5.632;2023-10-19T07:16:40;13.70;99.90
63537;DHT22;49686;51.880;5.632;2023-10-19T07:19:07;13.70;99.90
63537;DHT22;49686;51.880;5.632;2023-10-19T07:21:33;13.70;99.90
63537;DHT22;49686;51.880;5.632;2023-10-19T07:24:02;13.80;99.90
63537;DHT22;49686;51.880;5.632;2023-10-19T07:26:29;13.80;99.90
63537;DHT22;49686;51.880;5.632;2023-10-19T07:28:56;13.80;99.90
63537;DHT22;49686;51.880;5.632;2023-10-19T07:31:23;13.90;99.90
63537;DHT22;49686;51.880;5.632;2023-10-19T07:33:49;13.80;99.90
63537;DHT22;49686;51.880;5.632;2023-10-19T07:36:16;13.90;99.90
63537;DHT22;49686;51.880;5.632;2023-10-19T07:38:43;13.90;99.90
63537;DHT22;49686;51.880;5.632;2023-10-19T07:41:11;13.90;99.90
63537;DHT22;49686;51.880;5.632;2023-10-19T07:43:38;13.90;99.90
63537;DHT22;49686;51.880;5.632;2023-10-19T07:46:05;14.00;99.90
63537;DHT22;49686;51.880;5.632;2023-10-19T07:48:32;14.00;99.90
63537;DHT22;49686;51.880;5.632;2023-10-19T07:50:58;14.00;99.90
63537;DHT22;49686;51.880;5.632;2023-10-19T07:53:25;14.10;99.90
63537;DHT22;49686;51.880;5.632;2023-10-19T07:55:52;14.10;99.90
63537;DHT22;49686;51.880;5.632;2023-10-19T07:58:20;14.20;99.90
63537;DHT22;49686;51.880;5.632;2023-10-19T08:00:47;14.20;99.90
63537;DHT22;49686;51.880;5.632;2023-10-19T08:03:14;14.20;99.90
63537;DHT22;49686;51.880;5.632;2023-10-19T08:05:41;14.30;99.90
63537;DHT22;49686;51.880;5.632;2023-10-19T08:08:08;14.30;99.90
63537;DHT22;49686;51.880;5.632;2023-10-19T08:10:35;14.30;99.90
63537;DHT22;49686;51.880;5.632;2023-10-19T08:13:02;14.30;99.90
63537;DHT22;49686;51.880;5.632;2023-10-19T08:15:30;14.30;99.90
63537;DHT22;49686;51.880;5.632;2023-10-19T08:17:57;14.40;99.90
63537;DHT22;49686;51.880;5.632;2023-10-19T08:20:25;14.40;99.90
63537;DHT22;49686;51.880;5.632;2023-10-19T08:22:54;14.50;99.90
63537;DHT22;49686;51.880;5.632;2023-10-19T08:25:21;14.60;99.90
63537;DHT22;49686;51.880;5.632;2023-10-19T08:27:49;14.60;99.90
63537;DHT22;49686;51.880;5.632;2023-10-19T08:30:16;14.60;99.90
63537;DHT22;49686;51.880;5.632;2023-10-19T08:32:48;14.70;99.90
63537;DHT22;49686;51.880;5.632;2023-10-19T08:35:17;14.80;99.90
63537;DHT22;49686;51.880;5.632;2023-10-19T08:37:44;14.80;99.90
63537;DHT22;49686;51.880;5.632;2023-10-19T08:40:11;14.80;99.90
63537;DHT22;49686;51.880;5.632;2023-10-19T08:42:38;14.90;99.90
63537;DHT22;49686;51.880;5.632;2023-10-19T08:45:06;15.00;99.90
63537;DHT22;49686;51.880;5.632;2023-10-19T08:47:33;15.00;99.90
63537;DHT22;49686;51.880;5.632;2023-10-19T08:50:02;15.10;99.90
63537;DHT22;49686;51.880;5.632;2023-10-19T08:52:29;15.20;99.90
63537;DHT22;49686;51.880;5.632;2023-10-19T08:54:56;15.30;99.90
63537;DHT22;49686;51.880;5.632;2023-10-19T08:57:23;15.40;99.90
63537;DHT22;49686;51.880;5.632;2023-10-19T08:59:50;15.50;99.90
63537;DHT22;49686;51.880;5.632;2023-10-19T09:02:17;15.50;99.90
63537;DHT22;49686;51.880;5.632;2023-10-19T09:04:44;15.60;99.90
63537;DHT22;49686;51.880;5.632;2023-10-19T09:07:16;15.60;99.90
63537;DHT22;49686;51.880;5.632;2023-10-19T09:09:43;15.60;99.90
63537;DHT22;49686;51.880;5.632;2023-10-19T09:12:11;15.60;99.90
63537;DHT22;49686;51.880;5.632;2023-10-19T09:14:38;15.60;99.90
63537;DHT22;49686;51.880;5.632;2023-10-19T09:17:05;15.70;99.90
63537;DHT22;49686;51.880;5.632;2023-10-19T09:19:36;15.70;99.90
63537;DHT22;49686;51.880;5.632;2023-10-19T09:22:04;15.70;99.90
63537;DHT22;49686;51.880;5.632;2023-10-19T09:24:32;15.90;99.90
63537;DHT22;49686;51.880;5.632;2023-10-19T09:26:59;16.20;99.90
63537;DHT22;49686;51.880;5.632;2023-10-19T09:29:26;16.30;99.90
63537;DHT22;49686;51.880;5.632;2023-10-19T09:31:53;16.60;99.90
63537;DHT22;49686;51.880;5.632;2023-10-19T09:34:22;16.90;99.90
63537;DHT22;49686;51.880;5.632;2023-10-19T09:36:49;17.00;99.90
63537;DHT22;49686;51.880;5.632;2023-10-19T09:39:19;17.30;99.90
63537;DHT22;49686;51.880;5.632;2023-10-19T09:41:47;17.60;99.90
63537;DHT22;49686;51.880;5.632;2023-10-19T09:44:15;17.80;99.90
63537;DHT22;49686;51.880;5.632;2023-10-19T09:46:46;17.90;99.90
63537;DHT22;49686;51.880;5.632;2023-10-19T09:49:14;18.00;99.90
63537;DHT22;49686;51.880;5.632;2023-10-19T09:51:42;18.20;99.90
63537;DHT22;49686;51.880;5.632;2023-10-19T09:54:37;18.30;99.90
63537;DHT22;49686;51.880;5.632;2023-10-19T09:57:13;18.40;99.90
63537;DHT22;49686;51.880;5.632;2023-10-19T09:59:41;18.30;99.90
63537;DHT22;49686;51.880;5.632;2023-10-19T10:02:11;18.20;99.90
63537;DHT22;49686;51.880;5.632;2023-10-19T10:04:39;18.10;99.90
63537;DHT22;49686;51.880;5.632;2023-10-19T10:07:07;18.20;99.90
63537;DHT22;49686;51.880;5.632;2023-10-19T10:09:36;18.20;99.90
63537;DHT22;49686;51.880;5.632;2023-10-19T10:12:17;18.00;99.90
63537;DHT22;49686;51.880;5.632;2023-10-19T10:14:57;18.00;99.90
63537;DHT22;49686;51.880;5.632;2023-10-19T10:17:25;18.00;99.90
63537;DHT22;49686;51.880;5.632;2023-10-19T10:19:54;18.10;99.90
63537;DHT22;49686;51.880;5.632;2023-10-19T10:22:21;18.40;99.90
63537;DHT22;49686;51.880;5.632;2023-10-19T10:24:54;18.20;99.90
63537;DHT22;49686;51.880;5.632;2023-10-19T10:27:22;18.30;99.90
63537;DHT22;49686;51.880;5.632;2023-10-19T10:29:56;18.30;99.90
63537;DHT22;49686;51.880;5.632;2023-10-19T10:32:43;18.30;99.90
63537;DHT22;49686;51.880;5.632;2023-10-19T10:35:10;18.30;99.90
63537;DHT22;49686;51.880;5.632;2023-10-19T10:37:37;18.10;99.90
63537;DHT22;49686;51.880;5.632;2023-10-19T10:40:05;18.10;99.90
63537;DHT22;49686;51.880;5.632;2023-10-19T10:42:34;18.30;99.90
63537;DHT22;49686;51.880;5.632;2023-10-19T10:45:00;18.50;99.90
63537;DHT22;49686;51.880;5.632;2023-10-19T10:47:27;18.60;99.90
63537;DHT22;49686;51.880;5.632;2023-10-19T10:49:55;18.60;99.90
63537;DHT22;49686;51.880;5.632;2023-10-19T10:52:28;18.60;99.90
63537;DHT22;49686;51.880;5.632;2023-10-19T10:54:56;18.60;99.90
63537;DHT22;49686;51.880;5.632;2023-10-19T10:57:23;18.70;99.90
63537;DHT22;49686;51.880;5.632;2023-10-19T11:00:03;18.70;99.90
63537;DHT22;49686;51.880;5.632;2023-10-19T11:02:31;18.70;99.90
63537;DHT22;49686;51.880;5.632;2023-10-19T11:04:57;18.90;99.90
63537;DHT22;49686;51.880;5.632;2023-10-19T11:07:24;19.20;99.90
63537;DHT22;49686;51.880;5.632;2023-10-19T11:09:51;19.50;99.90
63537;DHT22;49686;51.880;5.632;2023-10-19T11:12:21;19.80;99.90
63537;DHT22;49686;51.880;5.632;2023-10-19T11:14:54;19.80;99.90
63537;DHT22;49686;51.880;5.632;2023-10-19T11:17:22;19.60;99.90
63537;DHT22;49686;51.880;5.632;2023-10-19T11:19:49;19.50;99.90
63537;DHT22;49686;51.880;5.632;2023-10-19T11:22:16;19.30;99.90
63537;DHT22;49686;51.880;5.632;2023-10-19T11:24:43;19.30;99.90
63537;DHT22;49686;51.880;5.632;2023-10-19T11:27:10;19.40;99.90
63537;DHT22;49686;51.880;5.632;2023-10-19T11:29:37;19.20;99.90
63537;DHT22;49686;51.880;5.632;2023-10-19T11:32:04;18.90;99.90
63537;DHT22;49686;51.880;5.632;2023-10-19T11:34:32;19.00;99.90
63537;DHT22;49686;51.880;5.632;2023-10-19T11:36:59;19.10;99.90
63537;DHT22;49686;51.880;5.632;2023-10-19T11:39:27;19.30;99.90
63537;DHT22;49686;51.880;5.632;2023-10-19T11:41:54;19.40;99.90
63537;DHT22;49686;51.880;5.632;2023-10-19T11:44:22;19.40;99.90
63537;DHT22;49686;51.880;5.632;2023-10-19T11:46:49;19.40;99.90
63537;DHT22;49686;51.880;5.632;2023-10-19T11:49:16;19.40;99.90
63537;DHT22;49686;51.880;5.632;2023-10-19T11:51:44;19.40;99.90
63537;DHT22;49686;51.880;5.632;2023-10-19T11:54:11;19.10;99.90
63537;DHT22;49686;51.880;5.632;2023-10-19T11:56:38;19.00;99.90
63537;DHT22;49686;51.880;5.632;2023-10-19T11:59:05;18.90;99.90
63537;DHT22;49686;51.880;5.632;2023-10-19T12:01:32;18.80;99.90
63537;DHT22;49686;51.880;5.632;2023-10-19T12:03:58;18.70;99.90
63537;DHT22;49686;51.880;5.632;2023-10-19T12:06:25;18.70;99.90
63537;DHT22;49686;51.880;5.632;2023-10-19T12:08:54;18.70;99.90
63537;DHT22;49686;51.880;5.632;2023-10-19T12:11:20;18.80;99.90
63537;DHT22;49686;51.880;5.632;2023-10-19T12:13:49;18.90;99.90
63537;DHT22;49686;51.880;5.632;2023-10-19T12:16:16;19.10;99.90
63537;DHT22;49686;51.880;5.632;2023-10-19T12:18:44;19.20;99.90
63537;DHT22;49686;51.880;5.632;2023-10-19T12:21:10;19.10;99.90
63537;DHT22;49686;51.880;5.632;2023-10-19T12:23:38;19.00;99.90
63537;DHT22;49686;51.880;5.632;2023-10-19T12:26:07;19.00;99.90
63537;DHT22;49686;51.880;5.632;2023-10-19T12:28:34;18.90;99.90
63537;DHT22;49686;51.880;5.632;2023-10-19T12:31:00;19.00;99.90
63537;DHT22;49686;51.880;5.632;2023-10-19T12:33:28;18.80;99.90
63537;DHT22;49686;51.880;5.632;2023-10-19T12:35:55;18.70;99.90
63537;DHT22;49686;51.880;5.632;2023-10-19T12:38:23;18.70;99.90
63537;DHT22;49686;51.880;5.632;2023-10-19T12:40:50;18.60;99.90
63537;DHT22;49686;51.880;5.632;2023-10-19T12:43:18;18.60;99.90
63537;DHT22;49686;51.880;5.632;2023-10-19T12:45:45;18.40;99.90
63537;DHT22;49686;51.880;5.632;2023-10-19T12:48:12;18.20;99.90
63537;DHT22;49686;51.880;5.632;2023-10-19T12:50:39;18.10;99.90
63537;DHT22;49686;51.880;5.632;2023-10-19T12:53:06;18.00;99.90
63537;DHT22;49686;51.880;5.632;2023-10-19T12:55:33;17.90;99.90
63537;DHT22;49686;51.880;5.632;2023-10-19T12:58:00;17.80;99.90
63537;DHT22;49686;51.880;5.632;2023-10-19T13:00:28;17.70;99.90
63537;DHT22;49686;51.880;5.632;2023-10-19T13:02:59;17.60;99.90
63537;DHT22;49686;51.880;5.632;2023-10-19T13:05:27;17.40;99.90
63537;DHT22;49686;51.880;5.632;2023-10-19T13:07:54;17.30;99.90
63537;DHT22;49686;51.880;5.632;2023-10-19T13:10:21;17.20;99.90
63537;DHT22;49686;51.880;5.632;2023-10-19T13:12:47;17.20;99.90
63537;DHT22;49686;51.880;5.632;2023-10-19T13:15:15;17.10;99.90
63537;DHT22;49686;51.880;5.632;2023-10-19T13:17:43;17.10;99.90
63537;DHT22;49686;51.880;5.632;2023-10-19T13:20:10;17.00;99.90
63537;DHT22;49686;51.880;5.632;2023-10-19T13:22:37;17.00;99.90
63537;DHT22;49686;51.880;5.632;2023-10-19T13:25:04;17.00;99.90
63537;DHT22;49686;51.880;5.632;2023-10-19T13:27:31;17.00;99.90
63537;DHT22;49686;51.880;5.632;2023-10-19T13:29:58;17.00;99.90
63537;DHT22;49686;51.880;5.632;2023-10-19T13:32:28;17.00;99.90
63537;DHT22;49686;51.880;5.632;2023-10-19T13:34:57;17.10;99.90
63537;DHT22;49686;51.880;5.632;2023-10-19T13:37:24;17.20;99.90
63537;DHT22;49686;51.880;5.632;2023-10-19T13:39:51;17.20;99.90
63537;DHT22;49686;51.880;5.632;2023-10-19T13:42:17;17.20;99.90
63537;DHT22;49686;51.880;5.632;2023-10-19T13:44:44;17.20;99.90
63537;DHT22;49686;51.880;5.632;2023-10-19T13:47:11;17.30;99.90
63537;DHT22;49686;51.880;5.632;2023-10-19T13:49:38;17.20;99.90
63537;DHT22;49686;51.880;5.632;2023-10-19T13:52:06;17.20;99.90
63537;DHT22;49686;51.880;5.632;2023-10-19T13:54:33;17.20;99.90
63537;DHT22;49686;51.880;5.632;2023-10-19T13:57:03;17.20;99.90
63537;DHT22;49686;51.880;5.632;2023-10-19T13:59:30;17.20;99.90
63537;DHT22;49686;51.880;5.632;2023-10-19T14:01:56;17.10;99.90
63537;DHT22;49686;51.880;5.632;2023-10-19T14:04:23;17.10;99.90
63537;DHT22;49686;51.880;5.632;2023-10-19T14:06:50;17.00;99.90
63537;DHT22;49686;51.880;5.632;2023-10-19T14:09:18;17.00;99.90
63537;DHT22;49686;51.880;5.632;2023-10-19T14:11:45;16.90;99.90
63537;DHT22;49686;51.880;5.632;2023-10-19T14:14:12;16.80;99.90
63537;DHT22;49686;51.880;5.632;2023-10-19T14:16:39;16.80;99.90
63537;DHT22;49686;51.880;5.632;2023-10-19T14:19:06;16.70;99.90
63537;DHT22;49686;51.880;5.632;2023-10-19T14:21:32;16.70;99.90
63537;DHT22;49686;51.880;5.632;2023-10-19T14:23:59;16.60;99.90
63537;DHT22;49686;51.880;5.632;2023-10-19T14:26:27;16.60;99.90
63537;DHT22;49686;51.880;5.632;2023-10-19T14:28:54;16.60;99.90
63537;DHT22;49686;51.880;5.632;2023-10-19T14:31:21;16.60;99.90
63537;DHT22;49686;51.880;5.632;2023-10-19T14:38:14;16.60;99.90
63537;DHT22;49686;51.880;5.632;2023-10-19T14:40:41;16.50;99.90
63537;DHT22;49686;51.880;5.632;2023-10-19T14:43:08;16.50;99.90
63537;DHT22;49686;51.880;5.632;2023-10-19T14:45:35;16.50;99.90
63537;DHT22;49686;51.880;5.632;2023-10-19T14:48:02;16.50;99.90
63537;DHT22;49686;51.880;5.632;2023-10-19T14:50:29;16.50;99.90
63537;DHT22;49686;51.880;5.632;2023-10-19T14:52:57;16.50;99.90
63537;DHT22;49686;51.880;5.632;2023-10-19T14:55:25;16.40;99.90
63537;DHT22;49686;51.880;5.632;2023-10-19T14:57:53;16.40;99.90
63537;DHT22;49686;51.880;5.632;2023-10-19T15:00:21;16.40;99.90
63537;DHT22;49686;51.880;5.632;2023-10-19T15:02:49;16.40;99.90
63537;DHT22;49686;51.880;5.632;2023-10-19T15:05:17;16.40;99.90
63537;DHT22;49686;51.880;5.632;2023-10-19T15:07:45;16.30;99.90
63537;DHT22;49686;51.880;5.632;2023-10-19T15:10:13;16.30;99.90
63537;DHT22;49686;51.880;5.632;2023-10-19T15:12:41;16.20;99.90
63537;DHT22;49686;51.880;5.632;2023-10-19T15:15:09;16.20;99.90
63537;DHT22;49686;51.880;5.632;2023-10-19T15:17:37;16.20;99.90
63537;DHT22;49686;51.880;5.632;2023-10-19T15:20:05;16.20;99.90
63537;DHT22;49686;51.880;5.632;2023-10-19T15:22:33;16.20;99.90
63537;DHT22;49686;51.880;5.632;2023-10-19T15:25:00;16.20;99.90
63537;DHT22;49686;51.880;5.632;2023-10-19T15:27:27;16.20;99.90
63537;DHT22;49686;51.880;5.632;2023-10-19T15:29:56;16.20;99.90
63537;DHT22;49686;51.880;5.632;2023-10-19T15:32:23;16.30;99.90
63537;DHT22;49686;51.880;5.632;2023-10-19T15:34:50;16.40;99.90
63537;DHT22;49686;51.880;5.632;2023-10-19T15:37:18;16.30;99.90